Country
Station

 

Weather  for  Cortez, Cortez-Montezuma County Airport  -  United States    United States

  
10 °C (50 °F)
    
 
 

Current METAR for Cortez, Cortez-Montezuma County Airport is :

KCEZ 161853Z AUTO 23007KT 10SM CLR 10/M07 A3015 RMK AO2 SLP202 T01001072

 

This is a report for Cortez, Cortez-Montezuma County Airport - United States.
 
The report was made 9 minutes ago, at 18:53 UTC .
The wind was blowing at a speed of 3.6 meters per second (8.1 miles per hour) from southwest (230°).
 
The temperature was 10 °C (50 °F), with a dew-point at -7 °C (19 °F).
The atmospheric pressure was 1021 hPa (30.15 inHg).
The relative humidity was 29.4%.
 
The sky was clear.
 
The overall visibility was 16.1 kilometers (10.0 miles).
 

 
 
 
 

Country :   A   B   C   D   E   F   G   H   I   J   K   L   M   N   O   P   Q   R   S   T   U   V   W   Y   Z

 

Site Info  |  Disclaimer  |  Credits  |  Privacy
Contact us  |  Add to favorites
© 2013-2018 METARs - All rights reserved